Normandy, Illinois
Current Conditions -  °F | °C
As of 8:35 PM on Wednesday 17 Dec 2014 (Local Time) from KSQI Reporting Station
Clear Clear  
Wind Chill: 19°   Ceiling: Unl
Heat Index: 19°   Visibility: 10mi
Dew Point: 12°   Wind: 0mph
Humidity: 74%   Direction: NA
Pressure: 30.3"   Gusts: NA
Location:  41.5523°N, 89.5915°W
Report Text: KSQI 180235Z 00000KT 10SM CLR M07/M11 A3030 RMK AO1
Loading
Personal Weather Stations






























Interactive Weather Map New forecast layout! Learn more

10-Day Weather Forecast

Advertisements
Track Severe Weather on mobile